Aeroporto :
LOGIN :

Iscrizione | Disclaimer

   EN    FR    IT 

 










Sommario :    VFR   VFR Marginale   IFR   IFR Intensivo   IFR Molto Intensivo
Visibilità : 
Base nubi : 
>= 8 km
>= 3000ft
5 / 8 km
1000 / 3000 ft
1500m / 5 km
500 / 1000 ft
800 / 1500m
200 / 500 ft
< 800m
< 200 ft
Simboli :   Temporali  Nebbia  Neve Forte  Precipitazioni Forti  Vento > 20 kt
SIGMETs :   Varie  Temporali  Ghiacco  Turbolenza  Onda orograficha  Ceneri Vulcaniche






- Altitudine del aeroporto : 436 ft
- Codice IATA : ANG


LFBU - Angoulême Brie Champniers

ULTIMO METAR :
  • 150930Z AUTO 21008KT 160V250 9999 ////// 22/16 Q1009

METARs OBSOLETI :
  • 150900Z AUTO 22008KT 180V250 9999 ////// 21/16 Q1009
  • 150830Z AUTO 22007KT 180V260 9999 ////// 21/17 Q1009
  • 150800Z AUTO 21007KT 170V260 9999 ////// 20/17 Q1009
  • 150730Z AUTO 19006KT 150V240 9999 ////// 20/17 Q1009
  • 150700Z AUTO 18006KT 140V220 9999 ////// 19/17 Q1009

TAF TAF LFBU
Valido dal 15 a 06 ore il 16 a 06 ore UTC


150500Z 1506/1606 18005KT 9999 BKN025
BECMG 1506/1508 24010KT
TEMPO 1511/1516 SCT050TCU
BECMG 1516/1518 CAVOK
BECMG 1518/1520 VRB03KT



MetMap, La meteo Aeronautica in un colpo d'occhio ! - Copyright ORBIFLY Dicembre 2007 - Disclaimer

ORBIFLY MET'MAP TEAM :

Programmazione e sviluppo : Alexandra Zaïnal
Concezione : Baudouin d'Aumeries
Supporto tecnico e logistico : Manuel Goepfert
Aiuto : Marc-Olivier Méhu
Aiuto per la traduzione : Arnaldo La Scala




FONTI E CREDITI :

   NOAA